createdAt,value
2019-01-19T00:02:01.576Z,-6.00
2019-01-19T00:06:48.179Z,-5.70
2019-01-19T00:09:34.904Z,-5.50
2019-01-19T00:12:34.744Z,-5.10
2019-01-19T00:15:20.800Z,-5.20
2019-01-19T00:18:16.475Z,-5.30
2019-01-19T00:23:02.218Z,-5.30
2019-01-19T00:25:48.061Z,-5.20
2019-01-19T00:28:27.179Z,-5.10
2019-01-19T00:32:04.039Z,-4.80
2019-01-19T00:37:27.599Z,-4.30
2019-01-19T00:42:13.547Z,-4.20
2019-01-19T00:45:00.441Z,-4.10
2019-01-19T00:51:35.063Z,-3.90
2019-01-19T00:54:14.091Z,-3.80
2019-01-19T00:56:52.734Z,-3.70
2019-01-19T01:02:06.223Z,-3.60
2019-01-19T01:04:43.265Z,-3.60
2019-01-19T01:08:22.955Z,-3.50
2019-01-19T01:11:00.855Z,-3.50
2019-01-19T01:13:50.125Z,-3.40
2019-01-19T01:18:41.967Z,-3.40
2019-01-19T01:22:06.357Z,-3.40
2019-01-19T01:24:48.482Z,-3.70
2019-01-19T01:27:32.303Z,-3.70
2019-01-19T01:30:25.048Z,-3.70
2019-01-19T01:33:50.904Z,-3.70
2019-01-19T01:36:35.387Z,-3.70
2019-01-19T01:44:02.672Z,-3.80
2019-01-19T01:49:38.240Z,-3.70
2019-01-19T01:55:54.502Z,-3.80
2019-01-19T01:58:33.303Z,-3.80
2019-01-19T02:03:32.950Z,-3.80
2019-01-19T02:06:19.043Z,-3.80
2019-01-19T02:09:29.959Z,-3.70
2019-01-19T02:13:14.176Z,-3.60
2019-01-19T02:16:11.968Z,-3.60
2019-01-19T02:21:01.944Z,-3.60
2019-01-19T02:23:54.793Z,-3.50
2019-01-19T02:26:40.683Z,-3.60
2019-01-19T02:29:21.347Z,-3.60
2019-01-19T02:32:13.644Z,-3.70
2019-01-19T02:35:03.674Z,-3.70
2019-01-19T02:37:41.888Z,-3.60
2019-01-19T02:40:22.957Z,-3.60
2019-01-19T02:43:12.561Z,-3.60
2019-01-19T02:46:00.536Z,-3.60
2019-01-19T02:48:46.249Z,-3.60
2019-01-19T02:51:30.038Z,-3.60
2019-01-19T02:56:20.199Z,-3.60
2019-01-19T03:00:04.149Z,-3.60
2019-01-19T03:04:54.977Z,-3.60
2019-01-19T03:07:49.602Z,-3.60
2019-01-19T03:10:37.543Z,-3.50
2019-01-19T03:13:18.923Z,-3.50
2019-01-19T03:15:58.879Z,-3.50
2019-01-19T03:19:11.919Z,-3.50
2019-01-19T03:22:10.955Z,-3.50
2019-01-19T03:25:13.328Z,-3.50
2019-01-19T03:27:53.323Z,-3.50
2019-01-19T03:30:36.344Z,-3.60
2019-01-19T03:33:21.170Z,-3.60
2019-01-19T03:37:17.813Z,-3.70
2019-01-19T03:41:01.762Z,-3.70
2019-01-19T03:44:02.601Z,-3.60
2019-01-19T03:46:51.823Z,-3.70
2019-01-19T03:52:46.478Z,-3.70
2019-01-19T03:55:35.034Z,-3.70
2019-01-19T03:58:16.007Z,-3.80
2019-01-19T04:01:01.531Z,-3.80
2019-01-19T04:04:49.600Z,-3.80
2019-01-19T04:07:28.925Z,-3.70
2019-01-19T04:15:34.002Z,-3.70
2019-01-19T04:21:33.514Z,-3.60
2019-01-19T04:26:40.893Z,-3.50
2019-01-19T04:29:11.250Z,-3.60
2019-01-19T04:31:41.628Z,-3.70
2019-01-19T04:34:12.209Z,-4.00
2019-01-19T04:39:12.723Z,-4.40
2019-01-19T04:41:43.192Z,-4.60
2019-01-19T04:44:13.511Z,-4.70
2019-01-19T04:46:43.809Z,-4.90
2019-01-19T04:49:14.429Z,-5.10
2019-01-19T04:51:44.899Z,-5.20
2019-01-19T04:54:15.199Z,-5.30
2019-01-19T04:56:45.384Z,-5.40
2019-01-19T04:59:15.803Z,-5.40
2019-01-19T05:01:46.309Z,-5.40
2019-01-19T05:04:16.744Z,-5.40
2019-01-19T05:06:47.152Z,-5.30
2019-01-19T05:09:17.563Z,-5.30
2019-01-19T05:11:48.108Z,-5.30
2019-01-19T05:14:18.526Z,-5.20
2019-01-19T05:16:48.992Z,-5.10
2019-01-19T05:19:19.604Z,-5.00
2019-01-19T05:21:50.091Z,-5.00
2019-01-19T05:24:20.597Z,-5.00
2019-01-19T05:26:50.808Z,-5.00
2019-01-19T05:29:21.205Z,-4.90
2019-01-19T05:31:51.414Z,-4.90
2019-01-19T05:36:51.629Z,-4.80
2019-01-19T05:39:22.098Z,-4.80
2019-01-19T05:41:52.451Z,-4.80
2019-01-19T05:44:22.740Z,-4.80
2019-01-19T05:46:53.251Z,-4.80
2019-01-19T05:49:23.737Z,-4.80
2019-01-19T05:51:54.206Z,-4.90
2019-01-19T05:56:54.232Z,-5.00
2019-01-19T05:59:24.657Z,-5.00
2019-01-19T06:01:55.125Z,-5.00
2019-01-19T06:04:25.540Z,-4.90
2019-01-19T06:06:55.984Z,-4.90
2019-01-19T06:09:26.608Z,-4.90
2019-01-19T06:11:57.186Z,-4.90
2019-01-19T06:14:27.756Z,-5.00
2019-01-19T06:16:58.069Z,-5.00
2019-01-19T06:19:28.627Z,-5.00
2019-01-19T06:22:00.475Z,-5.00
2019-01-19T06:24:31.015Z,-5.00
2019-01-19T06:27:01.312Z,-5.10
2019-01-19T06:29:31.744Z,-5.20
2019-01-19T06:32:02.020Z,-5.40
2019-01-19T06:34:32.613Z,-5.40
2019-01-19T06:37:04.308Z,-5.30
2019-01-19T06:39:33.843Z,-5.30
2019-01-19T06:42:04.312Z,-5.30
2019-01-19T06:44:34.712Z,-5.40
2019-01-19T06:47:05.228Z,-5.50
2019-01-19T06:49:35.777Z,-5.70
2019-01-19T06:52:06.080Z,-5.70
2019-01-19T06:57:05.887Z,-5.60
2019-01-19T06:59:36.324Z,-5.60
2019-01-19T07:02:06.840Z,-5.50
2019-01-19T07:04:37.308Z,-5.50
2019-01-19T07:07:07.649Z,-5.50
2019-01-19T07:09:38.071Z,-5.30
2019-01-19T07:12:08.706Z,-5.20
2019-01-19T07:14:38.992Z,-5.00
2019-01-19T07:17:09.323Z,-4.90
2019-01-19T07:22:09.659Z,-4.60
2019-01-19T07:24:40.302Z,-4.50
2019-01-19T07:27:10.691Z,-4.50
2019-01-19T07:29:41.063Z,-4.40
2019-01-19T07:32:11.840Z,-4.40
2019-01-19T07:34:42.199Z,-4.40
2019-01-19T07:39:42.439Z,-4.30
2019-01-19T07:44:42.807Z,-4.10
2019-01-19T07:47:13.311Z,-4.00
2019-01-19T07:54:43.177Z,-3.70
2019-01-19T07:57:13.593Z,-3.50
2019-01-19T07:59:44.108Z,-3.30
2019-01-19T08:02:14.405Z,-3.10
2019-01-19T08:04:44.735Z,-2.90
2019-01-19T08:07:17.389Z,-2.80
2019-01-19T08:12:15.219Z,-2.50
2019-01-19T08:14:45.544Z,-2.40
2019-01-19T08:17:15.843Z,-2.30
2019-01-19T08:19:46.533Z,-2.20
2019-01-19T08:22:17.029Z,-2.10
2019-01-19T08:24:47.544Z,-2.10
2019-01-19T08:27:18.059Z,-2.10
2019-01-19T08:29:48.531Z,-2.10
2019-01-19T08:32:18.836Z,-2.10
2019-01-19T08:34:49.295Z,-2.00
2019-01-19T08:37:24.408Z,-1.90
2019-01-19T08:39:50.075Z,-1.70
2019-01-19T08:42:20.396Z,-1.60
2019-01-19T08:44:50.912Z,-1.50
2019-01-19T08:47:21.392Z,-1.50
2019-01-19T08:49:51.956Z,-1.50
2019-01-19T08:52:22.440Z,-1.40
2019-01-19T08:54:52.852Z,-1.40
2019-01-19T08:57:23.231Z,-1.40
2019-01-19T08:59:53.865Z,-1.40
2019-01-19T09:02:24.144Z,-1.40
2019-01-19T09:04:54.580Z,-1.40
2019-01-19T09:07:33.262Z,-1.40
2019-01-19T09:09:55.565Z,-1.60
2019-01-19T09:12:25.912Z,-1.60
2019-01-19T09:14:56.816Z,-1.60
2019-01-19T09:17:27.007Z,-1.50
2019-01-19T09:19:57.535Z,-1.50
2019-01-19T09:22:28.086Z,-1.30
2019-01-19T09:24:58.511Z,-1.10
2019-01-19T09:27:28.907Z,-0.80
2019-01-19T09:29:59.458Z,-0.60
2019-01-19T09:34:59.713Z,0.10
2019-01-19T09:37:30.116Z,0.40
2019-01-19T09:40:00.584Z,0.50
2019-01-19T09:42:31.068Z,0.70
2019-01-19T09:45:01.499Z,0.80
2019-01-19T09:47:31.959Z,0.90
2019-01-19T09:50:02.344Z,1.00
2019-01-19T09:52:32.884Z,0.80
2019-01-19T09:57:33.115Z,0.90
2019-01-19T10:00:03.670Z,0.90
2019-01-19T10:02:34.180Z,0.90
2019-01-19T10:05:05.696Z,1.20
2019-01-19T10:07:36.152Z,1.40
2019-01-19T10:10:07.667Z,1.60
2019-01-19T10:12:38.145Z,1.60
2019-01-19T10:15:10.051Z,1.70
2019-01-19T10:17:40.615Z,1.90
2019-01-19T10:20:13.915Z,1.80
2019-01-19T10:22:44.327Z,1.70
2019-01-19T10:25:15.248Z,1.40
2019-01-19T10:27:45.860Z,1.20
2019-01-19T10:30:18.513Z,0.70
2019-01-19T10:32:49.283Z,0.50
2019-01-19T10:35:19.780Z,0.60
2019-01-19T10:37:56.242Z,0.60
2019-01-19T10:40:20.819Z,0.80
2019-01-19T10:42:51.301Z,0.30
2019-01-19T10:45:23.460Z,0.30
2019-01-19T10:47:53.876Z,0.10
2019-01-19T10:50:24.305Z,0.30
2019-01-19T10:52:54.838Z,0.70
2019-01-19T10:55:25.457Z,1.00
2019-01-19T10:57:55.729Z,1.40
2019-01-19T11:00:28.183Z,1.10
2019-01-19T11:02:59.199Z,0.50
2019-01-19T11:05:29.879Z,0.30
2019-01-19T11:08:04.017Z,0.60
2019-01-19T11:10:31.955Z,0.60
2019-01-19T11:13:02.505Z,0.60
2019-01-19T11:15:33.340Z,0.60
2019-01-19T11:18:03.952Z,0.90
2019-01-19T11:20:34.487Z,0.80
2019-01-19T11:23:05.169Z,0.70
2019-01-19T11:25:35.716Z,0.90
2019-01-19T11:28:06.292Z,1.00
2019-01-19T11:30:36.507Z,0.60
2019-01-19T11:33:07.235Z,0.70
2019-01-19T11:35:37.699Z,0.50
2019-01-19T11:38:11.940Z,0.40
2019-01-19T11:40:39.547Z,0.50
2019-01-19T11:43:11.203Z,0.30
2019-01-19T11:48:11.576Z,0.40
2019-01-19T11:50:41.999Z,0.50
2019-01-19T11:53:12.355Z,0.60
2019-01-19T11:55:42.676Z,0.90
2019-01-19T11:58:12.972Z,1.00
2019-01-19T12:00:43.420Z,1.20
2019-01-19T12:03:13.996Z,1.50
2019-01-19T12:05:44.575Z,1.70
2019-01-19T12:08:19.443Z,1.80
2019-01-19T12:10:45.732Z,2.00
2019-01-19T12:13:16.076Z,1.90
2019-01-19T12:15:46.667Z,1.90
2019-01-19T12:18:17.038Z,1.70
2019-01-19T12:20:49.362Z,1.70
2019-01-19T12:23:19.873Z,1.40
2019-01-19T12:28:19.882Z,1.60
2019-01-19T12:30:51.540Z,1.80
2019-01-19T12:33:20.830Z,1.80
2019-01-19T12:35:51.353Z,1.50
2019-01-19T12:38:26.814Z,1.30
2019-01-19T12:40:52.579Z,1.10
2019-01-19T12:43:24.348Z,1.20
2019-01-19T12:45:58.400Z,1.30
2019-01-19T12:48:28.845Z,1.30
2019-01-19T12:50:59.399Z,1.40
2019-01-19T12:53:30.041Z,1.40
2019-01-19T12:56:00.464Z,1.50
2019-01-19T12:58:30.655Z,1.60
2019-01-19T13:01:00.977Z,1.50
2019-01-19T13:03:31.439Z,1.70
2019-01-19T13:06:46.369Z,1.80
2019-01-19T13:09:20.875Z,1.60
2019-01-19T13:13:06.568Z,1.60
2019-01-19T13:17:52.429Z,1.70
2019-01-19T13:20:33.576Z,2.00
2019-01-19T13:23:29.736Z,2.20
2019-01-19T13:26:22.544Z,2.20
2019-01-19T13:31:17.138Z,2.20
2019-01-19T13:34:31.303Z,2.10
2019-01-19T13:37:43.135Z,2.10
2019-01-19T13:40:32.151Z,2.30
2019-01-19T13:45:49.424Z,2.40
2019-01-19T13:49:48.056Z,2.40
2019-01-19T13:52:27.022Z,2.30
2019-01-19T13:55:07.932Z,2.20
2019-01-19T13:57:55.509Z,2.20
2019-01-19T14:00:40.178Z,2.50
2019-01-19T14:04:26.441Z,2.50
2019-01-19T14:07:11.458Z,2.20
2019-01-19T14:10:07.627Z,1.90
2019-01-19T14:13:29.652Z,1.60
2019-01-19T14:18:14.972Z,1.60
2019-01-19T14:21:07.700Z,2.00
2019-01-19T14:23:47.885Z,1.90
2019-01-19T14:26:34.673Z,1.90
2019-01-19T14:29:17.740Z,1.80
2019-01-19T14:32:03.540Z,1.60
2019-01-19T14:34:49.101Z,1.20
2019-01-19T14:38:44.011Z,0.90
2019-01-19T14:44:36.265Z,0.60
2019-01-19T14:47:46.216Z,0.10
2019-01-19T14:50:31.953Z,-0.30
2019-01-19T14:54:10.587Z,-0.50
2019-01-19T14:56:56.315Z,-0.60
2019-01-19T14:59:33.808Z,-0.80
2019-01-19T15:02:32.560Z,-0.80
2019-01-19T15:05:10.582Z,-0.90
2019-01-19T15:12:01.244Z,-1.00
2019-01-19T15:15:10.695Z,-1.20
2019-01-19T15:18:24.000Z,-1.70
2019-01-19T15:21:04.726Z,-1.90
2019-01-19T15:24:18.103Z,-2.10
2019-01-19T15:26:59.814Z,-2.20
2019-01-19T15:29:48.914Z,-2.30
2019-01-19T15:32:32.144Z,-2.40
2019-01-19T15:36:24.874Z,-2.60
2019-01-19T15:39:44.579Z,-2.70
2019-01-19T15:44:29.255Z,-2.80
2019-01-19T15:48:20.986Z,-2.90
2019-01-19T15:51:05.951Z,-3.10
2019-01-19T15:53:44.354Z,-3.20
2019-01-19T15:56:41.481Z,-3.30
2019-01-19T15:59:28.427Z,-3.30
2019-01-19T16:05:47.243Z,-3.50
2019-01-19T16:08:28.461Z,-3.50
2019-01-19T16:11:10.835Z,-3.60
2019-01-19T16:15:55.766Z,-3.60
2019-01-19T16:18:43.588Z,-3.70
2019-01-19T16:21:21.952Z,-3.70
2019-01-19T16:25:06.658Z,-3.70
2019-01-19T16:27:53.200Z,-3.70
2019-01-19T16:30:38.205Z,-3.70
2019-01-19T16:33:24.740Z,-3.60
2019-01-19T16:36:17.516Z,-3.60
2019-01-19T16:38:59.648Z,-3.70
2019-01-19T16:41:46.663Z,-3.70
2019-01-19T16:45:01.382Z,-3.70
2019-01-19T16:48:00.851Z,-3.80
2019-01-19T16:52:45.406Z,-3.80
2019-01-19T16:55:58.739Z,-3.80
2019-01-19T16:59:44.063Z,-4.00
2019-01-19T17:02:22.945Z,-4.00
2019-01-19T17:05:19.487Z,-3.90
2019-01-19T17:08:35.691Z,-3.90
2019-01-19T17:11:20.035Z,-4.00
2019-01-19T17:17:05.639Z,-4.10
2019-01-19T17:19:48.251Z,-4.20
2019-01-19T17:22:37.177Z,-4.20
2019-01-19T17:25:19.185Z,-4.20
2019-01-19T17:28:45.039Z,-4.30
2019-01-19T17:31:57.547Z,-4.40
2019-01-19T17:34:54.393Z,-4.40
2019-01-19T17:37:33.470Z,-4.50
2019-01-19T17:40:20.539Z,-4.50
2019-01-19T17:43:05.506Z,-4.60
2019-01-19T17:47:54.174Z,-4.60
2019-01-19T17:51:50.207Z,-4.50
2019-01-19T17:56:31.162Z,-4.60
2019-01-19T17:59:13.448Z,-4.50
2019-01-19T18:01:53.103Z,-4.30
2019-01-19T18:04:31.008Z,-4.30
2019-01-19T18:07:13.964Z,-4.40
2019-01-19T18:12:00.303Z,-4.40
2019-01-19T18:16:48.950Z,-4.40
2019-01-19T18:19:58.793Z,-4.50
2019-01-19T18:23:46.609Z,-4.50
2019-01-19T18:26:32.894Z,-4.50
2019-01-19T18:29:17.796Z,-4.40
2019-01-19T18:32:13.357Z,-4.40
2019-01-19T18:34:57.971Z,-4.40
2019-01-19T18:39:43.480Z,-4.40
2019-01-19T18:42:22.472Z,-4.40
2019-01-19T18:45:02.303Z,-4.60
2019-01-19T18:48:14.855Z,-4.60
2019-01-19T18:51:13.132Z,-4.60
2019-01-19T18:54:02.849Z,-4.50
2019-01-19T18:57:41.540Z,-4.50
2019-01-19T19:00:26.245Z,-4.50
2019-01-19T19:03:07.228Z,-4.50
2019-01-19T19:08:20.799Z,-4.60
2019-01-19T19:12:05.947Z,-4.70
2019-01-19T19:14:51.152Z,-4.70
2019-01-19T19:17:48.067Z,-4.80
2019-01-19T19:20:37.084Z,-4.70
2019-01-19T19:23:51.543Z,-4.80
2019-01-19T19:28:27.485Z,-4.80
2019-01-19T19:31:12.453Z,-4.80
2019-01-19T19:37:40.661Z,-4.70
2019-01-19T19:40:34.501Z,-4.80
2019-01-19T19:43:15.121Z,-4.90
2019-01-19T19:45:55.278Z,-4.80
2019-01-19T19:49:40.527Z,-4.80
2019-01-19T19:52:11.496Z,-4.80
2019-01-19T19:54:45.098Z,-4.90
2019-01-19T19:57:15.317Z,-4.90
2019-01-19T19:59:45.570Z,-4.90
2019-01-19T20:02:16.129Z,-4.90
2019-01-19T20:07:16.126Z,-4.90
2019-01-19T20:09:46.632Z,-4.90
2019-01-19T20:12:16.998Z,-4.90
2019-01-19T20:14:47.368Z,-4.90
2019-01-19T20:17:17.851Z,-5.00
2019-01-19T20:19:48.347Z,-5.10
2019-01-19T20:22:18.807Z,-5.10
2019-01-19T20:24:49.017Z,-5.10
2019-01-19T20:27:19.557Z,-5.10
2019-01-19T20:29:50.140Z,-5.00
2019-01-19T20:32:20.616Z,-5.00
2019-01-19T20:34:51.102Z,-5.00
2019-01-19T20:37:21.595Z,-5.00
2019-01-19T20:39:51.733Z,-5.00
2019-01-19T20:42:22.176Z,-5.00
2019-01-19T20:44:52.703Z,-5.00
2019-01-19T20:47:23.104Z,-5.00
2019-01-19T20:49:53.550Z,-5.00
2019-01-19T20:52:23.928Z,-5.00
2019-01-19T20:54:54.419Z,-5.00
2019-01-19T20:57:24.732Z,-5.00
2019-01-19T20:59:55.024Z,-5.00
2019-01-19T21:02:25.287Z,-5.00
2019-01-19T21:04:55.912Z,-4.90
2019-01-19T21:07:26.239Z,-4.90
2019-01-19T21:09:56.695Z,-4.80
2019-01-19T21:12:27.188Z,-4.80
2019-01-19T21:14:57.705Z,-4.70
2019-01-19T21:17:28.089Z,-4.70
2019-01-19T21:19:58.533Z,-4.70
2019-01-19T21:22:28.868Z,-4.80
2019-01-19T21:24:59.288Z,-4.80
2019-01-19T21:27:29.618Z,-4.70
2019-01-19T21:30:00.171Z,-4.70
2019-01-19T21:35:00.373Z,-4.70
2019-01-19T21:37:30.676Z,-4.70
2019-01-19T21:40:01.067Z,-4.80
2019-01-19T21:42:31.561Z,-4.80
2019-01-19T21:45:02.662Z,-4.80
2019-01-19T21:47:32.999Z,-4.80
2019-01-19T21:50:03.482Z,-4.80
2019-01-19T21:52:33.912Z,-4.90
2019-01-19T21:55:04.541Z,-5.00
2019-01-19T21:57:35.140Z,-5.00
2019-01-19T22:00:08.431Z,-4.90
2019-01-19T22:02:38.752Z,-4.90
2019-01-19T22:05:09.366Z,-4.90
2019-01-19T22:07:39.691Z,-4.90
2019-01-19T22:10:12.579Z,-4.90
2019-01-19T22:12:42.923Z,-4.90
2019-01-19T22:15:15.572Z,-4.90
2019-01-19T22:17:45.898Z,-5.00
2019-01-19T22:20:16.955Z,-5.00
2019-01-19T22:22:47.423Z,-4.90
2019-01-19T22:25:18.043Z,-4.80
2019-01-19T22:27:49.611Z,-4.90
2019-01-19T22:30:22.188Z,-5.00
2019-01-19T22:32:54.370Z,-5.00
2019-01-19T22:35:26.518Z,-5.10
2019-01-19T22:37:57.122Z,-5.00
2019-01-19T22:40:27.851Z,-5.00
2019-01-19T22:43:00.688Z,-5.00
2019-01-19T22:45:31.185Z,-5.10
2019-01-19T22:48:01.559Z,-5.10
2019-01-19T22:50:32.149Z,-5.10
2019-01-19T22:53:02.395Z,-5.10
2019-01-19T22:55:32.864Z,-5.10
2019-01-19T23:03:13.601Z,-5.20
2019-01-19T23:05:43.894Z,-5.20
2019-01-19T23:08:14.236Z,-5.20
2019-01-19T23:10:44.519Z,-5.20
2019-01-19T23:13:15.064Z,-5.20
2019-01-19T23:15:45.513Z,-5.20
2019-01-19T23:23:15.191Z,-5.30
2019-01-19T23:25:45.680Z,-5.40
2019-01-19T23:28:16.064Z,-5.40
2019-01-19T23:30:46.435Z,-5.40
2019-01-19T23:33:16.814Z,-5.40
2019-01-19T23:35:47.198Z,-5.40
2019-01-19T23:38:17.688Z,-5.40
2019-01-19T23:45:47.353Z,-5.40
2019-01-19T23:48:17.834Z,-5.40
2019-01-19T23:50:48.344Z,-5.50
2019-01-19T23:58:21.287Z,-5.50
